Time;durP1;ratioP1;P1;durP2;ratioP2;P2;SDS_P1;SDS_P2;PMS_P1;PMS_P2;Temp;Humidity;BMP_temperature;BMP_pressure;BME280_temperature;BME280_humidity;BME280_pressure;Samples;Min_cycle;Max_cycle;Signal;HPM_P1;HPM_P2
2020/12/12 00:01:15;;;;;;;44.40;23.75;;;2.20;99.90;;;;;;5062169;28;20086;-76
2020/12/12 00:03:41;;;;;;;58.25;26.75;;;2.20;99.90;;;;;;5046918;28;20072;-74
2020/12/12 00:06:08;;;;;;;60.90;26.00;;;2.20;99.90;;;;;;5079693;28;20132;-76
2020/12/12 00:08:34;;;;;;;52.65;25.35;;;2.30;99.90;;;;;;5065166;28;20129;-75
2020/12/12 00:11:00;;;;;;;50.15;23.73;;;2.30;99.90;;;;;;5064635;28;20063;-75
2020/12/12 00:13:26;;;;;;;54.88;26.50;;;2.30;99.90;;;;;;5096404;28;20067;-75
2020/12/12 00:15:53;;;;;;;51.88;24.00;;;2.30;99.90;;;;;;5046297;28;20048;-75
2020/12/12 00:18:19;;;;;;;54.97;23.95;;;2.30;99.90;;;;;;5063075;28;20045;-75
2020/12/12 00:20:45;;;;;;;52.33;23.80;;;2.30;99.90;;;;;;5062891;28;20045;-75
2020/12/12 00:23:12;;;;;;;60.22;27.63;;;2.30;99.90;;;;;;5064894;28;20102;-75
2020/12/12 00:25:38;;;;;;;62.83;28.90;;;2.30;99.90;;;;;;5070143;28;20051;-75
2020/12/12 00:28:04;;;;;;;46.95;24.13;;;2.40;99.90;;;;;;5074872;28;20429;-76
2020/12/12 00:30:31;;;;;;;64.72;27.92;;;2.30;99.90;;;;;;5048453;28;20123;-75
2020/12/12 00:32:57;;;;;;;62.17;28.95;;;2.30;99.90;;;;;;5066328;28;20059;-75
2020/12/12 00:35:23;;;;;;;49.55;22.98;;;2.40;99.90;;;;;;5082847;28;20072;-74
2020/12/12 00:37:50;;;;;;;50.85;23.23;;;2.40;99.90;;;;;;5067466;28;20044;-74
2020/12/12 00:40:16;;;;;;;56.80;26.42;;;2.40;99.90;;;;;;5065887;28;20057;-74
2020/12/12 00:42:42;;;;;;;64.15;28.05;;;2.40;99.90;;;;;;5067242;28;20059;-74
2020/12/12 00:45:09;;;;;;;55.05;26.33;;;2.40;99.90;;;;;;5048634;28;20048;-74
2020/12/12 00:47:35;;;;;;;65.57;29.10;;;2.40;99.90;;;;;;5066305;28;20132;-75
2020/12/12 00:50:01;;;;;;;49.70;24.42;;;2.40;99.90;;;;;;5100680;28;20048;-75
2020/12/12 00:52:28;;;;;;;63.42;28.77;;;2.50;99.90;;;;;;5100268;28;20446;-75
2020/12/12 00:54:54;;;;;;;60.97;28.40;;;2.50;99.90;;;;;;5080701;28;20056;-74
2020/12/12 00:57:20;;;;;;;61.22;27.52;;;2.50;99.90;;;;;;5056910;28;20524;-76
2020/12/12 00:59:46;;;;;;;67.88;29.40;;;2.50;99.90;;;;;;5066455;28;20044;-75
2020/12/12 01:02:13;;;;;;;59.65;27.73;;;2.50;99.90;;;;;;5048614;28;20139;-75
2020/12/12 01:04:39;;;;;;;59.65;26.25;;;2.50;99.90;;;;;;5049437;28;20135;-75
2020/12/12 01:07:06;;;;;;;46.58;22.40;;;2.60;99.90;;;;;;5065672;28;20549;-76
2020/12/12 01:09:32;;;;;;;61.08;28.38;;;2.50;99.90;;;;;;5067853;28;20049;-76
2020/12/12 01:11:59;;;;;;;68.15;28.92;;;2.50;99.90;;;;;;5032117;28;20048;-75
2020/12/12 01:14:25;;;;;;;59.13;26.60;;;2.50;99.90;;;;;;5067703;28;20044;-75
2020/12/12 01:16:51;;;;;;;59.70;28.52;;;2.50;99.90;;;;;;5065612;28;20048;-76
2020/12/12 01:19:18;;;;;;;62.05;27.70;;;2.60;99.90;;;;;;5099863;28;20109;-75
2020/12/12 01:21:45;;;;;;;61.47;29.00;;;2.60;99.90;;;;;;5065077;28;20478;-76
2020/12/12 01:24:16;;;;;;;65.65;28.55;;;2.60;99.90;;;;;;5066069;28;20111;-76
2020/12/12 01:26:46;;;;;;;56.30;25.42;;;2.60;99.90;;;;;;5074564;28;20052;-75
2020/12/12 01:29:13;;;;;;;48.08;24.58;;;2.60;99.90;;;;;;5069648;28;20052;-75
2020/12/12 01:31:40;;;;;;;65.65;28.10;;;2.60;99.90;;;;;;5049366;28;20059;-75
2020/12/12 01:34:06;;;;;;;64.22;29.67;;;2.60;99.90;;;;;;5065039;28;20067;-75
2020/12/12 01:36:33;;;;;;;57.13;25.85;;;2.70;99.90;;;;;;5080211;28;20047;-74
2020/12/12 01:38:59;;;;;;;68.50;28.30;;;2.70;99.90;;;;;;5067308;28;20139;-75
2020/12/12 01:41:25;;;;;;;60.67;26.83;;;2.70;99.90;;;;;;5083229;28;20052;-74
2020/12/12 01:43:52;;;;;;;45.70;20.77;;;2.70;99.90;;;;;;5067404;28;20052;-74
2020/12/12 01:46:25;;;;;;;60.28;26.27;;;2.70;99.90;;;;;;5064867;28;20528;-75
2020/12/12 01:48:56;;;;;;;58.88;26.80;;;2.80;99.90;;;;;;5098966;28;20066;-75
2020/12/12 01:51:26;;;;;;;57.03;27.70;;;2.80;99.90;;;;;;5065973;28;20052;-75
2020/12/12 01:53:58;;;;;;;59.38;27.05;;;2.70;99.90;;;;;;5066379;28;20433;-76
2020/12/12 01:56:25;;;;;;;58.67;27.52;;;2.80;99.90;;;;;;5075612;28;20059;-76
2020/12/12 01:58:53;;;;;;;54.85;24.10;;;2.80;99.90;;;;;;5067981;28;20052;-74
2020/12/12 02:01:25;;;;;;;58.60;27.58;;;2.80;99.90;;;;;;5063347;28;20068;-75
2020/12/12 02:03:54;;;;;;;64.32;27.27;;;2.70;99.90;;;;;;5066821;28;20856;-75
2020/12/12 02:06:21;;;;;;;58.90;28.83;;;2.80;99.90;;;;;;5064993;28;20045;-75
2020/12/12 02:08:51;;;;;;;59.53;26.00;;;2.80;99.90;;;;;;5048490;28;20048;-74
2020/12/12 02:11:19;;;;;;;57.28;26.35;;;2.80;99.90;;;;;;5064064;28;20527;-74
2020/12/12 02:13:47;;;;;;;56.97;23.90;;;2.80;99.90;;;;;;5066293;28;20048;-74
2020/12/12 02:16:15;;;;;;;56.72;25.33;;;2.80;99.90;;;;;;5071399;28;20405;-75
2020/12/12 02:18:42;;;;;;;61.58;26.95;;;2.80;99.90;;;;;;5069109;28;20076;-74
2020/12/12 02:21:09;;;;;;;40.88;19.00;;;2.90;99.90;;;;;;5032685;28;20547;-76
2020/12/12 02:23:36;;;;;;;61.25;26.75;;;2.80;99.90;;;;;;5066360;28;20052;-74
2020/12/12 02:26:03;;;;;;;58.70;27.58;;;2.80;99.90;;;;;;5071980;28;20047;-74
2020/12/12 02:28:42;;;;;;;64.22;26.25;;;2.80;99.90;;;;;;5070039;28;20076;-74
2020/12/12 02:31:08;;;;;;;62.10;27.52;;;2.80;99.90;;;;;;5065247;28;20107;-75
2020/12/12 02:33:38;;;;;;;66.78;26.98;;;2.80;99.90;;;;;;5081905;28;20086;-75
2020/12/12 02:36:06;;;;;;;62.50;27.23;;;2.80;99.90;;;;;;5064583;28;20509;-75
2020/12/12 02:38:32;;;;;;;56.70;26.98;;;2.80;99.90;;;;;;5065392;28;20064;-75
2020/12/12 02:40:58;;;;;;;66.78;28.38;;;2.80;99.90;;;;;;5072152;28;20052;-75
2020/12/12 02:43:25;;;;;;;60.25;24.50;;;2.80;99.90;;;;;;5068964;28;20390;-76
2020/12/12 02:45:51;;;;;;;59.42;24.67;;;2.80;99.90;;;;;;5055973;28;20062;-75
2020/12/12 02:48:18;;;;;;;56.20;24.50;;;2.80;99.90;;;;;;5050704;28;20080;-75
2020/12/12 02:50:44;;;;;;;51.08;23.63;;;2.80;99.90;;;;;;5046638;28;20809;-76
2020/12/12 02:53:11;;;;;;;60.20;23.02;;;2.80;99.90;;;;;;5027781;28;20583;-75
2020/12/12 02:55:37;;;;;;;67.80;27.80;;;2.90;99.90;;;;;;5047872;28;20131;-75
2020/12/12 02:58:03;;;;;;;65.38;26.80;;;2.80;99.90;;;;;;5051820;28;20053;-75
2020/12/12 03:00:30;;;;;;;58.05;25.02;;;2.80;99.90;;;;;;5045211;28;20060;-75
2020/12/12 03:02:56;;;;;;;64.65;27.25;;;2.80;99.90;;;;;;5046533;28;20139;-75
2020/12/12 03:05:22;;;;;;;59.92;25.42;;;2.80;99.90;;;;;;5063678;27;20513;-76
2020/12/12 03:07:49;;;;;;;64.93;26.98;;;2.80;99.90;;;;;;5065394;28;20072;-76
2020/12/12 03:10:15;;;;;;;59.83;26.63;;;2.80;99.90;;;;;;5063678;28;20660;-75
2020/12/12 03:12:41;;;;;;;69.72;29.35;;;2.80;99.90;;;;;;5097987;28;20572;-75
2020/12/12 03:15:09;;;;;;;68.50;28.80;;;2.90;99.90;;;;;;5029095;28;20060;-74
2020/12/12 03:17:37;;;;;;;71.93;28.73;;;2.90;99.90;;;;;;5047067;28;20523;-73
2020/12/12 03:20:06;;;;;;;68.50;26.70;;;2.90;99.90;;;;;;5047691;28;20040;-74
2020/12/12 03:22:33;;;;;;;73.03;28.75;;;2.90;99.90;;;;;;5080613;28;20091;-74
2020/12/12 03:25:00;;;;;;;69.05;26.65;;;2.90;99.90;;;;;;5057725;28;20062;-75
2020/12/12 03:27:26;;;;;;;74.47;30.85;;;2.90;99.90;;;;;;5050224;28;20048;-75
2020/12/12 03:29:53;;;;;;;67.38;26.55;;;2.90;99.90;;;;;;5043618;28;20529;-75
2020/12/12 03:32:30;;;;;;;68.15;28.30;;;2.90;99.90;;;;;;5043938;28;20144;-75
2020/12/12 03:34:56;;;;;;;65.40;28.17;;;2.90;99.90;;;;;;5044264;28;20044;-75
2020/12/12 03:37:24;;;;;;;67.47;28.88;;;2.90;99.90;;;;;;5044554;28;20609;-75
2020/12/12 03:39:50;;;;;;;74.05;30.27;;;2.90;99.90;;;;;;5053660;22;20063;-72
2020/12/12 03:42:17;;;;;;;75.07;28.30;;;2.90;99.90;;;;;;5030100;28;20140;-72
2020/12/12 03:44:43;;;;;;;66.57;26.17;;;2.90;99.90;;;;;;5023387;28;20167;-72
2020/12/12 03:47:10;;;;;;;65.45;24.05;;;3.00;99.90;;;;;;5042117;28;20634;-72
2020/12/12 03:49:36;;;;;;;72.22;27.13;;;3.00;99.90;;;;;;5050753;28;20044;-72
2020/12/12 03:52:03;;;;;;;69.00;26.73;;;3.00;99.90;;;;;;5063891;28;20409;-72
2020/12/12 03:54:30;;;;;;;71.43;27.00;;;3.00;99.90;;;;;;5046069;28;20044;-72
2020/12/12 03:56:56;;;;;;;77.22;27.33;;;3.00;99.90;;;;;;5054366;28;20231;-72
2020/12/12 03:59:22;;;;;;;77.25;26.80;;;3.00;99.90;;;;;;5043312;28;20049;-72
2020/12/12 04:01:49;;;;;;;67.68;27.48;;;3.00;99.90;;;;;;5028776;28;20064;-72
2020/12/12 04:04:15;;;;;;;60.42;21.67;;;3.00;99.90;;;;;;5030318;28;20080;-72
2020/12/12 04:06:42;;;;;;;87.03;29.65;;;3.10;99.90;;;;;;5029819;28;20124;-72
2020/12/12 04:09:09;;;;;;;66.63;26.08;;;3.10;99.90;;;;;;5046515;28;20087;-72
2020/12/12 04:11:35;;;;;;;72.55;26.75;;;3.10;99.90;;;;;;5047429;28;20664;-72
2020/12/12 04:14:02;;;;;;;59.60;25.30;;;3.00;99.90;;;;;;5046955;28;20525;-71
2020/12/12 04:16:28;;;;;;;50.63;18.02;;;3.10;99.90;;;;;;5058912;28;20056;-71
2020/12/12 04:18:55;;;;;;;69.18;26.42;;;3.10;99.90;;;;;;5068383;28;20060;-72
2020/12/12 04:21:21;;;;;;;65.35;25.52;;;3.10;99.90;;;;;;5049304;28;20048;-72
2020/12/12 04:23:47;;;;;;;68.47;27.42;;;3.10;99.90;;;;;;5067359;28;20048;-72
2020/12/12 04:26:14;;;;;;;59.55;24.13;;;3.10;99.90;;;;;;5059682;28;20722;-72
2020/12/12 04:28:40;;;;;;;76.18;28.02;;;3.20;99.90;;;;;;5047100;28;20140;-73
2020/12/12 04:31:08;;;;;;;71.05;27.35;;;3.10;99.90;;;;;;5065599;28;20114;-72
2020/12/12 04:33:35;;;;;;;73.78;27.55;;;3.10;99.90;;;;;;5067185;28;20056;-74
2020/12/12 04:36:05;;;;;;;65.03;25.00;;;3.10;99.90;;;;;;5065273;28;20048;-72
2020/12/12 04:38:35;;;;;;;61.22;23.42;;;3.10;99.90;;;;;;5048890;28;20048;-71
2020/12/12 04:41:09;;;;;;;55.83;22.60;;;3.10;99.90;;;;;;5049858;28;20123;-72
2020/12/12 04:43:41;;;;;;;68.28;24.48;;;3.10;99.90;;;;;;5065906;28;20106;-71
2020/12/12 04:46:08;;;;;;;67.00;25.20;;;3.20;99.90;;;;;;5032379;28;20045;-73
2020/12/12 04:48:35;;;;;;;59.03;24.15;;;3.10;99.90;;;;;;5067958;28;20056;-72
2020/12/12 04:51:03;;;;;;;60.92;24.25;;;3.10;99.90;;;;;;5066168;28;20064;-72
2020/12/12 04:53:29;;;;;;;54.40;22.20;;;3.10;99.90;;;;;;5032686;28;20228;-72
2020/12/12 04:55:56;;;;;;;60.42;23.48;;;3.20;99.90;;;;;;5060105;28;20584;-72
2020/12/12 04:58:27;;;;;;;65.13;26.70;;;3.20;99.90;;;;;;5051334;28;20053;-72
2020/12/12 05:00:55;;;;;;;62.28;24.95;;;3.20;99.90;;;;;;5026956;28;20133;-72
2020/12/12 05:03:23;;;;;;;61.90;24.85;;;3.20;99.90;;;;;;5049616;28;20056;-72
2020/12/12 05:05:50;;;;;;;58.70;24.50;;;3.30;99.90;;;;;;5048345;28;20121;-72
2020/12/12 05:08:17;;;;;;;59.90;26.20;;;3.30;99.90;;;;;;5064566;28;20463;-73
2020/12/12 05:10:44;;;;;;;60.42;24.77;;;3.30;99.90;;;;;;5056835;28;20398;-72
2020/12/12 05:13:22;;;;;;;58.03;23.60;;;3.20;99.90;;;;;;5048333;28;20082;-73
2020/12/12 05:15:51;;;;;;;62.63;25.23;;;3.20;99.90;;;;;;5066061;28;20756;-72
2020/12/12 05:18:18;;;;;;;54.50;24.02;;;3.30;99.90;;;;;;5065430;28;20067;-72
2020/12/12 05:20:45;;;;;;;64.93;26.35;;;3.30;99.90;;;;;;5064811;28;20055;-72
2020/12/12 05:23:17;;;;;;;55.13;22.65;;;3.20;99.90;;;;;;5031698;28;20053;-72
2020/12/12 05:25:45;;;;;;;63.35;26.38;;;3.30;99.90;;;;;;5064829;28;20044;-72
2020/12/12 05:28:14;;;;;;;64.82;26.42;;;3.30;99.90;;;;;;5056270;28;20072;-72
2020/12/12 05:30:46;;;;;;;64.85;27.88;;;3.20;99.90;;;;;;5060816;28;20409;-72
2020/12/12 05:33:18;;;;;;;65.85;25.75;;;3.30;99.90;;;;;;5045713;28;20151;-72
2020/12/12 05:35:45;;;;;;;60.47;26.75;;;3.30;99.90;;;;;;5048298;28;20056;-73
2020/12/12 05:38:12;;;;;;;62.38;24.77;;;3.30;99.90;;;;;;5059185;28;20304;-71
2020/12/12 05:40:41;;;;;;;61.67;25.80;;;3.30;99.90;;;;;;5057175;28;20052;-71
2020/12/12 05:43:11;;;;;;;58.40;24.50;;;3.30;99.90;;;;;;5066122;28;20063;-71
2020/12/12 05:45:39;;;;;;;60.33;24.67;;;3.20;99.90;;;;;;5047943;28;20128;-72
2020/12/12 05:48:10;;;;;;;62.33;26.75;;;3.30;99.90;;;;;;5065038;28;20059;-72
2020/12/12 05:50:36;;;;;;;56.78;24.75;;;3.30;99.90;;;;;;5063468;28;20061;-72
2020/12/12 05:53:04;;;;;;;62.05;26.83;;;3.30;99.90;;;;;;5031149;28;20068;-72
2020/12/12 05:55:32;;;;;;;58.80;26.48;;;3.20;99.90;;;;;;5030188;28;20048;-72
2020/12/12 05:57:59;;;;;;;61.75;27.50;;;3.30;99.90;;;;;;5030877;28;20519;-72
2020/12/12 06:00:28;;;;;;;59.40;25.60;;;3.30;99.90;;;;;;5047080;28;20048;-72
2020/12/12 06:03:20;;;;;;;52.75;25.13;;;3.30;99.90;;;;;;5064234;28;20055;-71
2020/12/12 06:05:48;;;;;;;59.47;25.63;;;3.30;99.90;;;;;;5047440;28;20064;-72
2020/12/12 06:08:31;;;;;;;55.00;23.85;;;3.30;99.90;;;;;;5064929;28;20060;-72
2020/12/12 06:11:06;;;;;;;54.15;25.17;;;3.30;99.90;;;;;;5053564;28;20627;-71
2020/12/12 06:13:37;;;;;;;55.17;26.38;;;3.30;99.90;;;;;;5058980;28;20060;-72
2020/12/12 06:16:08;;;;;;;63.08;26.27;;;3.30;99.90;;;;;;5047952;28;20153;-72
2020/12/12 06:18:54;;;;;;;55.67;26.02;;;3.30;99.90;;;;;;5064385;28;20539;-72
2020/12/12 06:21:25;;;;;;;62.47;27.75;;;3.40;99.90;;;;;;5030746;28;20078;-72
2020/12/12 06:23:53;;;;;;;57.85;26.17;;;3.40;99.90;;;;;;5063359;28;20576;-71
2020/12/12 06:26:35;;;;;;;62.80;27.40;;;3.40;99.90;;;;;;5063534;28;20052;-73
2020/12/12 06:29:01;;;;;;;61.28;26.70;;;3.30;99.90;;;;;;5027902;28;20059;-72
2020/12/12 06:31:28;;;;;;;55.30;25.58;;;3.30;99.90;;;;;;5043763;28;20049;-72
2020/12/12 06:33:55;;;;;;;61.20;27.45;;;3.40;99.90;;;;;;5064766;28;20053;-73
2020/12/12 06:36:24;;;;;;;55.58;25.30;;;3.40;99.90;;;;;;5063548;28;20056;-72
2020/12/12 06:38:50;;;;;;;59.90;26.88;;;3.40;99.90;;;;;;5062657;28;20044;-72
2020/12/12 06:41:43;;;;;;;54.50;25.15;;;3.40;99.90;;;;;;5040566;28;20135;-71
2020/12/12 06:44:09;;;;;;;59.95;25.40;;;3.40;99.90;;;;;;5062078;28;20225;-72
2020/12/12 06:46:53;;;;;;;57.25;26.08;;;3.40;99.90;;;;;;5029869;28;20127;-72
2020/12/12 06:49:23;;;;;;;48.88;23.95;;;3.40;99.90;;;;;;5046798;28;20052;-72
2020/12/12 06:51:53;;;;;;;57.90;25.05;;;3.50;99.90;;;;;;5063473;28;20045;-72
2020/12/12 06:54:20;;;;;;;50.20;23.83;;;3.50;99.90;;;;;;5064060;28;20048;-72
2020/12/12 06:56:47;;;;;;;52.83;24.48;;;3.40;99.90;;;;;;5026670;28;20140;-73
2020/12/12 06:59:24;;;;;;;53.38;24.00;;;3.40;99.90;;;;;;5043700;28;20049;-72
2020/12/12 07:01:52;;;;;;;52.90;24.98;;;3.50;99.90;;;;;;5060979;28;20048;-73
2020/12/12 07:04:41;;;;;;;65.20;28.70;;;3.50;99.90;;;;;;5064328;28;20056;-73
2020/12/12 07:07:10;;;;;;;57.03;26.17;;;3.50;99.90;;;;;;5046221;28;20040;-72
2020/12/12 07:09:38;;;;;;;61.92;27.40;;;3.50;99.90;;;;;;5054958;28;20048;-73
2020/12/12 07:12:05;;;;;;;61.88;28.42;;;3.50;99.90;;;;;;5026520;28;20049;-72
2020/12/12 07:14:32;;;;;;;58.60;26.77;;;3.50;99.90;;;;;;5049824;28;20044;-73
2020/12/12 07:17:00;;;;;;;58.10;27.23;;;3.50;99.90;;;;;;5064541;28;20071;-73
2020/12/12 07:19:37;;;;;;;58.08;24.80;;;3.50;99.90;;;;;;5063360;28;20048;-73
2020/12/12 07:22:12;;;;;;;60.05;26.92;;;3.50;99.90;;;;;;5063183;28;20071;-72
2020/12/12 07:24:39;;;;;;;56.83;25.90;;;3.50;99.90;;;;;;5063531;28;20056;-72
2020/12/12 07:27:06;;;;;;;52.85;25.92;;;3.50;99.90;;;;;;5041253;28;20102;-72
2020/12/12 07:29:33;;;;;;;52.90;24.77;;;3.50;99.90;;;;;;5076604;28;20135;-73
2020/12/12 07:32:00;;;;;;;55.53;26.30;;;3.50;99.90;;;;;;5053010;28;20045;-73
2020/12/12 07:34:28;;;;;;;51.25;22.98;;;3.60;99.90;;;;;;5063921;28;20551;-73
2020/12/12 07:37:05;;;;;;;54.90;24.38;;;3.50;99.90;;;;;;5028047;28;20058;-73
2020/12/12 07:39:36;;;;;;;51.42;24.40;;;3.50;99.90;;;;;;5046107;28;20058;-73
2020/12/12 07:42:05;;;;;;;55.05;26.02;;;3.50;99.90;;;;;;5046896;28;20608;-73
2020/12/12 07:44:35;;;;;;;59.67;29.30;;;3.60;99.90;;;;;;5026750;28;20064;-72
2020/12/12 07:47:05;;;;;;;78.43;42.03;;;3.60;99.90;;;;;;5041539;28;20064;-73
2020/12/12 07:49:32;;;;;;;74.65;37.80;;;3.60;99.90;;;;;;5042556;28;20053;-73
2020/12/12 07:52:10;;;;;;;100.30;52.33;;;3.70;99.90;;;;;;5059691;28;20072;-73
2020/12/12 07:55:00;;;;;;;50.42;26.15;;;3.60;99.90;;;;;;5043997;28;20049;-72
2020/12/12 07:57:27;;;;;;;51.08;26.77;;;3.60;99.90;;;;;;5046858;28;20045;-73
2020/12/12 08:00:08;;;;;;;46.42;24.75;;;3.70;99.90;;;;;;5052172;28;20392;-73
2020/12/12 08:02:38;;;;;;;52.13;23.50;;;3.70;99.90;;;;;;5041263;28;20110;-72
2020/12/12 08:05:07;;;;;;;57.47;26.58;;;3.70;99.90;;;;;;5024814;28;20111;-73
2020/12/12 08:07:34;;;;;;;50.53;24.10;;;3.70;99.90;;;;;;5032328;28;20080;-73
2020/12/12 08:10:03;;;;;;;53.00;24.42;;;3.80;99.90;;;;;;5052969;28;20563;-73
2020/12/12 08:12:33;;;;;;;47.10;22.77;;;3.80;99.90;;;;;;5061897;28;20093;-72
2020/12/12 08:15:16;;;;;;;47.50;23.50;;;3.90;99.90;;;;;;5029006;28;20059;-73
2020/12/12 08:17:42;;;;;;;40.17;22.88;;;3.90;99.90;;;;;;5062320;28;20044;-73
2020/12/12 08:20:14;;;;;;;43.10;22.88;;;3.90;99.90;;;;;;5044314;28;20040;-73
2020/12/12 08:22:41;;;;;;;47.38;23.85;;;3.80;99.90;;;;;;5061694;28;20048;-73
2020/12/12 08:25:08;;;;;;;50.38;24.25;;;3.90;99.90;;;;;;5061534;28;20056;-73
2020/12/12 08:27:35;;;;;;;45.10;22.73;;;3.90;99.90;;;;;;5062150;28;20076;-75
2020/12/12 08:30:04;;;;;;;44.35;22.70;;;4.00;99.90;;;;;;5050691;28;20055;-73
2020/12/12 08:32:38;;;;;;;44.30;22.23;;;4.10;99.90;;;;;;5026167;28;20049;-74
2020/12/12 08:35:25;;;;;;;52.67;23.65;;;4.00;99.90;;;;;;5042325;28;20059;-73
2020/12/12 08:38:01;;;;;;;45.55;24.60;;;3.90;99.90;;;;;;5049518;28;20052;-73
2020/12/12 08:40:49;;;;;;;47.58;22.83;;;3.90;99.90;;;;;;5054506;28;20051;-72
2020/12/12 08:43:17;;;;;;;49.83;22.58;;;3.90;99.90;;;;;;5046247;28;20060;-72
2020/12/12 08:45:54;;;;;;;43.72;22.98;;;3.90;99.90;;;;;;5061452;28;20900;-72
2020/12/12 08:48:21;;;;;;;43.05;23.23;;;4.00;99.90;;;;;;5049171;28;20592;-72
2020/12/12 08:50:56;;;;;;;42.03;22.38;;;3.90;99.90;;;;;;5065357;28;20131;-72
2020/12/12 08:53:40;;;;;;;41.53;22.02;;;4.00;99.90;;;;;;5049497;28;20050;-73
2020/12/12 08:56:10;;;;;;;45.05;24.35;;;4.00;99.90;;;;;;5055613;28;20057;-72
2020/12/12 08:58:48;;;;;;;44.80;22.60;;;4.00;99.90;;;;;;5029488;28;20130;-72
2020/12/12 09:01:30;;;;;;;38.75;20.50;;;4.00;99.90;;;;;;5060828;28;20069;-73
2020/12/12 09:04:00;;;;;;;44.17;21.45;;;4.00;99.90;;;;;;5047495;28;20425;-73
2020/12/12 09:06:57;;;;;;;41.53;20.15;;;4.10;99.90;;;;;;5049572;28;20106;-73
2020/12/12 09:09:29;;;;;;;40.92;20.23;;;4.10;99.90;;;;;;5052324;28;20175;-73
2020/12/12 09:12:08;;;;;;;40.50;20.30;;;4.10;99.90;;;;;;5065705;28;20590;-72
2020/12/12 09:14:41;;;;;;;38.88;18.92;;;4.10;99.90;;;;;;5049023;28;20059;-72
2020/12/12 09:17:09;;;;;;;37.75;19.52;;;4.10;99.90;;;;;;5040525;28;20797;-73
2020/12/12 09:19:37;;;;;;;40.08;21.38;;;4.20;99.90;;;;;;5072563;28;20052;-73
2020/12/12 09:22:06;;;;;;;35.88;20.25;;;4.20;99.90;;;;;;5063043;28;20071;-72
2020/12/12 09:24:32;;;;;;;35.17;19.27;;;4.20;99.90;;;;;;5048534;28;20179;-73
2020/12/12 09:26:59;;;;;;;38.47;20.17;;;4.20;99.90;;;;;;5044237;28;20059;-73
2020/12/12 09:29:26;;;;;;;36.20;19.80;;;4.20;99.90;;;;;;5065411;28;20060;-73
2020/12/12 09:31:54;;;;;;;36.47;22.80;;;4.20;99.90;;;;;;5063811;28;20202;-73
2020/12/12 09:34:22;;;;;;;33.25;19.50;;;4.30;99.90;;;;;;5072893;28;20060;-73
2020/12/12 09:36:49;;;;;;;33.78;19.13;;;4.40;99.90;;;;;;5074375;28;20094;-73
2020/12/12 09:39:16;;;;;;;33.17;19.13;;;4.40;99.90;;;;;;5037158;28;20045;-73
2020/12/12 09:41:43;;;;;;;36.13;20.52;;;4.50;99.90;;;;;;5072326;28;20147;-72
2020/12/12 09:44:09;;;;;;;34.60;20.63;;;4.50;99.90;;;;;;5065169;28;20060;-73
2020/12/12 09:46:36;;;;;;;44.40;22.23;;;4.50;99.90;;;;;;5063781;28;20059;-73
2020/12/12 09:49:02;;;;;;;37.25;20.48;;;4.60;99.90;;;;;;5052614;28;20047;-73
2020/12/12 09:51:29;;;;;;;33.20;19.98;;;4.60;99.90;;;;;;5042605;28;20050;-73
2020/12/12 09:53:56;;;;;;;37.80;23.75;;;4.60;99.90;;;;;;5062263;28;20127;-73
2020/12/12 09:56:24;;;;;;;31.00;19.40;;;4.60;99.90;;;;;;5063591;28;20247;-73
2020/12/12 09:58:50;;;;;;;32.20;19.05;;;4.70;99.90;;;;;;5057048;28;20049;-73
2020/12/12 10:01:16;;;;;;;32.72;20.52;;;4.80;99.90;;;;;;5060324;28;20131;-73
2020/12/12 10:03:43;;;;;;;31.73;17.55;;;4.80;99.90;;;;;;5058923;28;20072;-73
2020/12/12 10:06:10;;;;;;;35.30;21.70;;;4.90;99.90;;;;;;5046876;28;20052;-73
2020/12/12 10:08:37;;;;;;;34.42;21.60;;;4.90;99.90;;;;;;5063724;28;20076;-73
2020/12/12 10:11:05;;;;;;;31.25;20.27;;;4.90;99.90;;;;;;5061452;28;20068;-73
2020/12/12 10:13:31;;;;;;;35.35;20.92;;;4.90;99.90;;;;;;5062834;28;20044;-73
2020/12/12 10:15:58;;;;;;;33.78;21.15;;;5.00;99.90;;;;;;5046524;28;20410;-73
2020/12/12 10:18:24;;;;;;;33.55;20.70;;;5.00;99.90;;;;;;5063723;28;20083;-74
2020/12/12 10:20:52;;;;;;;32.70;19.23;;;5.00;99.90;;;;;;5045572;28;20048;-73
2020/12/12 10:23:18;;;;;;;34.15;20.50;;;5.10;99.90;;;;;;5047449;28;20056;-75
2020/12/12 10:25:45;;;;;;;29.02;19.67;;;5.20;99.90;;;;;;5029787;28;20052;-73
2020/12/12 10:28:11;;;;;;;30.77;20.63;;;5.20;99.90;;;;;;5045712;28;20040;-73
2020/12/12 10:30:38;;;;;;;28.73;18.50;;;5.30;99.90;;;;;;5061745;28;20040;-72
2020/12/12 10:33:05;;;;;;;33.65;20.38;;;5.30;99.90;;;;;;5046801;28;20048;-73
2020/12/12 10:35:32;;;;;;;28.10;19.65;;;5.40;99.90;;;;;;5079377;28;20068;-73
2020/12/12 10:37:59;;;;;;;27.67;19.05;;;5.40;99.90;;;;;;5061938;28;20628;-72
2020/12/12 10:42:53;;;;;;;29.70;20.20;;;5.40;99.90;;;;;;5064199;28;20044;-72
2020/12/12 10:45:19;;;;;;;32.17;21.23;;;5.60;99.90;;;;;;5045719;28;20131;-72
2020/12/12 10:47:45;;;;;;;31.02;19.92;;;5.60;99.90;;;;;;5030108;28;20076;-72
2020/12/12 10:50:12;;;;;;;33.10;20.17;;;5.60;99.90;;;;;;5045896;28;20043;-73
2020/12/12 10:52:38;;;;;;;28.33;18.48;;;5.50;99.90;;;;;;5062527;28;20092;-73
2020/12/12 10:55:05;;;;;;;33.92;22.60;;;5.50;99.90;;;;;;5063602;28;20052;-73
2020/12/12 10:57:32;;;;;;;29.30;19.73;;;5.50;99.90;;;;;;5061577;28;20531;-73
2020/12/12 11:00:00;;;;;;;31.55;19.85;;;5.50;99.90;;;;;;5061814;28;20056;-73
2020/12/12 11:02:32;;;;;;;30.27;18.65;;;5.60;99.90;;;;;;5023414;28;20049;-73
2020/12/12 11:04:59;;;;;;;29.38;19.02;;;5.60;99.90;;;;;;5043977;28;20053;-73
2020/12/12 11:07:25;;;;;;;29.33;19.40;;;5.60;99.90;;;;;;5046738;28;20056;-73
2020/12/12 11:09:51;;;;;;;32.17;21.25;;;5.60;99.90;;;;;;5036811;28;20383;-73
2020/12/12 11:12:18;;;;;;;28.23;18.95;;;5.80;99.90;;;;;;5062082;28;20135;-73
2020/12/12 11:14:48;;;;;;;30.45;20.77;;;5.70;99.90;;;;;;5062820;28;20131;-73
2020/12/12 11:17:15;;;;;;;28.77;18.98;;;5.70;99.90;;;;;;5061315;28;20051;-73
2020/12/12 11:19:41;;;;;;;32.10;21.15;;;5.70;99.90;;;;;;5028481;28;20147;-73
2020/12/12 11:22:07;;;;;;;33.38;21.08;;;5.70;99.90;;;;;;5062181;28;20056;-73
2020/12/12 11:24:34;;;;;;;31.38;20.80;;;5.70;99.90;;;;;;5063262;28;20060;-73
2020/12/12 11:27:00;;;;;;;26.20;17.42;;;5.70;99.90;;;;;;5062843;28;20064;-73
2020/12/12 11:29:26;;;;;;;29.83;20.08;;;5.70;99.90;;;;;;5079061;28;20511;-73
2020/12/12 11:31:54;;;;;;;22.90;16.25;;;5.80;99.90;;;;;;5043592;28;20141;-73
2020/12/12 11:34:35;;;;;;;29.05;18.25;;;5.80;99.90;;;;;;5045109;28;20066;-74
2020/12/12 11:42:25;;;;;;;26.65;18.65;;;5.90;99.90;;;;;;5040857;28;20048;-73
2020/12/12 11:45:10;;;;;;;25.85;18.33;;;6.00;99.90;;;;;;5043677;28;20532;-73
2020/12/12 11:47:36;;;;;;;27.83;19.15;;;6.10;99.90;;;;;;5007805;28;20048;-73
2020/12/12 11:50:03;;;;;;;29.83;21.10;;;6.00;99.90;;;;;;5042785;28;20041;-73
2020/12/12 11:52:34;;;;;;;29.80;19.17;;;6.10;99.90;;;;;;5051787;28;20586;-73
2020/12/12 11:55:00;;;;;;;26.73;19.60;;;6.20;99.90;;;;;;5062878;28;20051;-74
2020/12/12 11:57:27;;;;;;;22.25;16.20;;;6.30;99.90;;;;;;5061658;28;20063;-73
2020/12/12 11:59:55;;;;;;;26.73;18.25;;;6.20;99.90;;;;;;5064645;28;20056;-73
2020/12/12 12:02:22;;;;;;;29.42;19.30;;;6.20;99.90;;;;;;5062459;28;20175;-73
2020/12/12 12:04:48;;;;;;;27.25;18.10;;;6.20;99.90;;;;;;5029386;28;20567;-73
2020/12/12 12:07:15;;;;;;;26.45;18.88;;;6.30;99.90;;;;;;5062345;28;20036;-73
2020/12/12 12:09:47;;;;;;;30.17;20.08;;;6.20;99.90;;;;;;5061733;28;20143;-73
2020/12/12 12:12:13;;;;;;;30.92;20.42;;;6.20;99.90;;;;;;5061230;28;20182;-73
2020/12/12 12:14:39;;;;;;;28.60;18.65;;;6.30;99.90;;;;;;5062382;28;20044;-73
2020/12/12 12:17:06;;;;;;;28.08;21.15;;;6.20;99.90;;;;;;5045031;28;20482;-73
2020/12/12 12:19:32;;;;;;;26.63;17.95;;;6.30;99.90;;;;;;5057586;28;20139;-73
2020/12/12 12:21:59;;;;;;;25.67;20.05;;;6.30;99.90;;;;;;5057490;28;20087;-73
2020/12/12 12:24:25;;;;;;;28.77;20.13;;;6.30;99.90;;;;;;5049343;28;20048;-73
2020/12/12 12:26:51;;;;;;;31.00;20.65;;;6.30;99.90;;;;;;5065095;28;20051;-73
2020/12/12 12:29:19;;;;;;;29.42;19.40;;;6.30;99.90;;;;;;5045782;28;20057;-75
2020/12/12 12:31:48;;;;;;;26.40;18.33;;;6.30;99.90;;;;;;5045624;28;20091;-72
2020/12/12 12:34:15;;;;;;;27.58;18.85;;;6.20;99.90;;;;;;5046580;28;20126;-73
2020/12/12 12:36:41;;;;;;;28.55;19.85;;;6.30;99.90;;;;;;5044657;28;20455;-73
2020/12/12 12:39:09;;;;;;;22.58;16.77;;;6.30;99.90;;;;;;5042177;28;20517;-74
2020/12/12 12:41:37;;;;;;;25.60;18.20;;;6.20;99.90;;;;;;5054382;28;20057;-73
2020/12/12 12:44:05;;;;;;;24.85;18.02;;;6.20;99.90;;;;;;5045144;28;20049;-73
2020/12/12 12:46:39;;;;;;;24.48;18.52;;;6.20;99.90;;;;;;5044464;28;20488;-73
2020/12/12 12:49:06;;;;;;;24.42;18.95;;;6.10;99.90;;;;;;5045051;28;20045;-73
2020/12/12 12:51:32;;;;;;;27.20;20.08;;;6.10;99.90;;;;;;5064606;28;20471;-73